Terminal Aerodrome Forecast
Issued by NWS Cleveland, OH

Home | Current Version | Previous Version | Graphics & Text | Print | Product List | Glossary On
Versions: 1 2 3 4 5 6 7 8 9 10 11 12 13 14 15 16 17 18 19 20 21
000
FTUS41 KCLE 232200 AAA
TAFYNG
TAF AMD
KYNG 232201Z 2322/2418 36012G18KT P6SM OVC070
     FM240000 03005KT P6SM OVC070
     FM241000 05005KT P6SM SCT250=

USA.gov is the U.S. government's official web portal to all federal, state and local government web resources and services.